Time;durP1;ratioP1;P1;durP2;ratioP2;P2;SDS_P1;SDS_P2;PMS_P1;PMS_P2;Temp;Humidity;BMP_temperature;BMP_pressure;BME280_temperature;BME280_humidity;BME280_pressure;Samples;Min_cycle;Max_cycle;Signal;HPM_P1;HPM_P2
2021/06/17 00:02:24;;;;;;;;;;;;;;;;;;5072927;28;19908;-77
2021/06/17 00:04:50;;;;;;;;;;;;;;;;;;5072281;28;19957;-77
2021/06/17 00:07:16;;;;;;;;;;;;;;;;;;5071116;28;19915;-77
2021/06/17 00:09:42;;;;;;;;;;;;;;;;;;5072697;28;19916;-77
2021/06/17 00:12:08;;;;;;;;;;;;;;;;;;5071013;28;19915;-77
2021/06/17 00:14:34;;;;;;;;;;;;;;;;;;5072469;28;20306;-77
2021/06/17 00:17:00;;;;;;;;;;;;;;;;;;5072717;28;20353;-77
2021/06/17 00:19:26;;;;;;;;;;;;;;;;;;5072414;28;20287;-78
2021/06/17 00:21:52;;;;;;;;;;;;;;;;;;5073157;28;19956;-77
2021/06/17 00:24:18;;;;;;;;;;;;;;;;;;5076411;28;19915;-77
2021/06/17 00:26:43;;;;;;;;;;;;;;;;;;5076450;28;19908;-78
2021/06/17 00:29:09;;;;;;;;;;;;;;;;;;5075781;28;20317;-77
2021/06/17 00:31:35;;;;;;;;;;;;;;;;;;5072254;28;19966;-77
2021/06/17 00:34:01;;;;;;;;;;;;;;;;;;5073673;28;20282;-79
2021/06/17 00:36:27;;;;;;;;;;;;;;;;;;5076204;28;19908;-77
2021/06/17 00:38:53;;;;;;;;;;;;;;;;;;5076179;28;19913;-78
2021/06/17 00:41:19;;;;;;;;;;;;;;;;;;5075772;28;19994;-77
2021/06/17 00:43:45;;;;;;;;;;;;;;;;;;5075657;28;19908;-77
2021/06/17 00:46:11;;;;;;;;;;;;;;;;;;5076120;28;20003;-78
2021/06/17 00:48:37;;;;;;;;;;;;;;;;;;5075660;28;19909;-78
2021/06/17 00:51:03;;;;;;;;;;;;;;;;;;5076813;28;19914;-77
2021/06/17 00:53:29;;;;;;;;;;;;;;;;;;5075777;28;19940;-78
2021/06/17 00:55:55;;;;;;;;;;;;;;;;;;5074510;28;20266;-77
2021/06/17 00:58:21;;;;;;;;;;;;;;;;;;5075118;28;19912;-78
2021/06/17 01:00:47;;;;;;;;;;;;;;;;;;5073065;28;19934;-79
2021/06/17 01:03:13;;;;;;;;;;;;;;;;;;5071726;28;19917;-78
2021/06/17 01:05:39;;;;;;;;;;;;;;;;;;5075285;28;19916;-78
2021/06/17 01:08:05;;;;;;;;;;;;;;;;;;5075518;28;20263;-78
2021/06/17 01:10:31;;;;;;;;;;;;;;;;;;5075427;28;19908;-79
2021/06/17 01:12:57;;;;;;;;;;;;;;;;;;5074264;28;20354;-79
2021/06/17 01:15:23;;;;;;;;;;;;;;;;;;5075081;28;20390;-79
2021/06/17 01:17:49;;;;;;;;;;;;;;;;;;5075606;28;19909;-79
2021/06/17 01:20:14;;;;;;;;;;;;;;;;;;5075715;28;19908;-77
2021/06/17 01:22:40;;;;;;;;;;;;;;;;;;5074048;28;19909;-79
2021/06/17 01:25:06;;;;;;;;;;;;;;;;;;5075388;28;19913;-78
2021/06/17 01:27:32;;;;;;;;;;;;;;;;;;5075340;28;20344;-78
2021/06/17 01:29:58;;;;;;;;;;;;;;;;;;5075511;28;19915;-78
2021/06/17 01:32:24;;;;;;;;;;;;;;;;;;5073889;28;19912;-77
2021/06/17 01:34:50;;;;;;;;;;;;;;;;;;5075367;28;19915;-79
2021/06/17 01:37:16;;;;;;;;;;;;;;;;;;5073662;28;19942;-77
2021/06/17 01:39:42;;;;;;;;;;;;;;;;;;5075271;28;19915;-79
2021/06/17 01:42:08;;;;;;;;;;;;;;;;;;5072896;28;20519;-79
2021/06/17 01:44:34;;;;;;;;;;;;;;;;;;5073172;28;19916;-77
2021/06/17 01:46:59;;;;;;;;;;;;;;;;;;5073809;28;19915;-78
2021/06/17 01:49:25;;;;;;;;;;;;;;;;;;5072817;28;19909;-78
2021/06/17 01:51:51;;;;;;;;;;;;;;;;;;5075141;28;19909;-79
2021/06/17 01:54:21;;;;;;;;;;;;;;;;;;5074736;28;19919;-78
2021/06/17 01:56:47;;;;;;;;;;;;;;;;;;5075226;28;19909;-78
2021/06/17 01:59:13;;;;;;;;;;;;;;;;;;5075067;28;19920;-78
2021/06/17 02:01:38;;;;;;;;;;;;;;;;;;5075333;28;19909;-78
2021/06/17 02:04:04;;;;;;;;;;;;;;;;;;5074933;28;19916;-77
2021/06/17 02:06:30;;;;;;;;;;;;;;;;;;5075223;28;20520;-79
2021/06/17 02:08:56;;;;;;;;;;;;;;;;;;5074910;28;20282;-79
2021/06/17 02:11:22;;;;;;;;;;;;;;;;;;5073703;28;19908;-79
2021/06/17 02:13:48;;;;;;;;;;;;;;;;;;5074571;28;20041;-77
2021/06/17 02:16:14;;;;;;;;;;;;;;;;;;5074629;28;20310;-78
2021/06/17 02:18:40;;;;;;;;;;;;;;;;;;5074358;28;19916;-79
2021/06/17 02:21:06;;;;;;;;;;;;;;;;;;5074344;28;19944;-77
2021/06/17 02:23:32;;;;;;;;;;;;;;;;;;5074958;28;19960;-77
2021/06/17 02:25:58;;;;;;;;;;;;;;;;;;5074713;28;19962;-78
2021/06/17 02:28:24;;;;;;;;;;;;;;;;;;5073870;28;19909;-77
2021/06/17 02:30:50;;;;;;;;;;;;;;;;;;5074037;28;19920;-78
2021/06/17 02:33:16;;;;;;;;;;;;;;;;;;5072468;28;19913;-77
2021/06/17 02:35:43;;;;;;;;;;;;;;;;;;5073574;28;19908;-78
2021/06/17 02:38:09;;;;;;;;;;;;;;;;;;5074271;28;20442;-78
2021/06/17 02:40:34;;;;;;;;;;;;;;;;;;5073974;28;19954;-77
2021/06/17 02:43:00;;;;;;;;;;;;;;;;;;5074045;28;19944;-77
2021/06/17 02:45:27;;;;;;;;;;;;;;;;;;5073612;28;20435;-78
2021/06/17 02:47:52;;;;;;;;;;;;;;;;;;5073675;28;20522;-77
2021/06/17 02:50:18;;;;;;;;;;;;;;;;;;5073838;28;19916;-78
2021/06/17 02:52:44;;;;;;;;;;;;;;;;;;5072300;28;19919;-77
2021/06/17 02:55:10;;;;;;;;;;;;;;;;;;5073515;28;19908;-77
2021/06/17 02:57:36;;;;;;;;;;;;;;;;;;5070114;28;19911;-77
2021/06/17 03:00:02;;;;;;;;;;;;;;;;;;5071456;28;20279;-76
2021/06/17 03:02:34;;;;;;;;;;;;;;;;;;5072046;28;20367;-77
2021/06/17 03:05:00;;;;;;;;;;;;;;;;;;5073328;28;19912;-78
2021/06/17 03:07:26;;;;;;;;;;;;;;;;;;5073167;28;19961;-78
2021/06/17 03:09:53;;;;;;;;;;;;;;;;;;5073365;28;20499;-77
2021/06/17 03:12:18;;;;;;;;;;;;;;;;;;5073300;28;19908;-78
2021/06/17 03:14:44;;;;;;;;;;;;;;;;;;5073028;28;20058;-77
2021/06/17 03:17:11;;;;;;;;;;;;;;;;;;5073309;28;19908;-77
2021/06/17 03:19:36;;;;;;;;;;;;;;;;;;5073130;28;19908;-77
2021/06/17 03:22:02;;;;;;;;;;;;;;;;;;5072754;28;20000;-78
2021/06/17 03:24:28;;;;;;;;;;;;;;;;;;5073005;28;19908;-77
2021/06/17 03:26:55;;;;;;;;;;;;;;;;;;5073390;28;19924;-76
2021/06/17 03:29:21;;;;;;;;;;;;;;;;;;5073160;28;19908;-78
2021/06/17 03:31:47;;;;;;;;;;;;;;;;;;5073458;28;19916;-77
2021/06/17 03:34:12;;;;;;;;;;;;;;;;;;5072706;28;19916;-78
2021/06/17 03:36:38;;;;;;;;;;;;;;;;;;5072941;28;19908;-78
2021/06/17 03:39:04;;;;;;;;;;;;;;;;;;5073231;28;20302;-77
2021/06/17 03:41:30;;;;;;;;;;;;;;;;;;5071980;28;20439;-78
2021/06/17 03:43:56;;;;;;;;;;;;;;;;;;5071348;28;19909;-78
2021/06/17 03:46:22;;;;;;;;;;;;;;;;;;5073113;28;19916;-78
2021/06/17 03:48:48;;;;;;;;;;;;;;;;;;5071616;28;19909;-77
2021/06/17 03:51:14;;;;;;;;;;;;;;;;;;5072730;28;19934;-78
2021/06/17 03:53:40;;;;;;;;;;;;;;;;;;5072780;28;19912;-76
2021/06/17 03:56:06;;;;;;;;;;;;;;;;;;5072453;28;20283;-78
2021/06/17 03:58:32;;;;;;;;;;;;;;;;;;5072740;28;19914;-78
2021/06/17 04:00:58;;;;;;;;;;;;;;;;;;5071262;28;20251;-79
2021/06/17 04:03:24;;;;;;;;;;;;;;;;;;5071306;28;19909;-78
2021/06/17 04:05:50;;;;;;;;;;;;;;;;;;5072732;28;19916;-77
2021/06/17 04:08:16;;;;;;;;;;;;;;;;;;5071108;28;20386;-77
2021/06/17 04:10:42;;;;;;;;;;;;;;;;;;5070775;28;19908;-78
2021/06/17 04:13:08;;;;;;;;;;;;;;;;;;5068991;28;19909;-77
2021/06/17 04:15:34;;;;;;;;;;;;;;;;;;5069322;28;19909;-77
2021/06/17 04:18:00;;;;;;;;;;;;;;;;;;5071221;28;20255;-78
2021/06/17 04:20:26;;;;;;;;;;;;;;;;;;5071007;28;20011;-77
2021/06/17 04:22:52;;;;;;;;;;;;;;;;;;5072810;28;19952;-77
2021/06/17 04:25:18;;;;;;;;;;;;;;;;;;5072539;28;19939;-79
2021/06/17 04:27:44;;;;;;;;;;;;;;;;;;5066239;28;19947;-81
2021/06/17 04:30:10;;;;;;;;;;;;;;;;;;5059941;28;19936;-82
2021/06/17 04:32:36;;;;;;;;;;;;;;;;;;5053281;28;19913;-78
2021/06/17 04:35:02;;;;;;;;;;;;;;;;;;5053663;28;20048;-81
2021/06/17 04:37:28;;;;;;;;;;;;;;;;;;5052154;28;20383;-80
2021/06/17 04:39:54;;;;;;;;;;;;;;;;;;5071882;28;19909;-80
2021/06/17 04:42:20;;;;;;;;;;;;;;;;;;5072379;28;19909;-81
2021/06/17 04:44:46;;;;;;;;;;;;;;;;;;5071865;28;20062;-81
2021/06/17 04:47:11;;;;;;;;;;;;;;;;;;5071373;28;19916;-81
2021/06/17 04:49:37;;;;;;;;;;;;;;;;;;5072742;28;19909;-81
2021/06/17 04:52:03;;;;;;;;;;;;;;;;;;5073254;28;19999;-82
2021/06/17 04:54:29;;;;;;;;;;;;;;;;;;5073040;28;20375;-83
2021/06/17 04:56:55;;;;;;;;;;;;;;;;;;5073163;28;20003;-83
2021/06/17 04:59:21;;;;;;;;;;;;;;;;;;5073227;28;19909;-83
2021/06/17 05:01:47;;;;;;;;;;;;;;;;;;5072214;28;19909;-81
2021/06/17 05:04:16;;;;;;;;;;;;;;;;;;5080161;28;19912;-82
2021/06/17 05:06:52;;;;;;;;;;;;;;;;;;5069311;28;19916;-82
2021/06/17 05:12:05;;;;;;;;;;;;;;;;;;5076768;28;20120;-83
2021/06/17 05:14:31;;;;;;;;;;;;;;;;;;5064793;28;19916;-81
2021/06/17 05:16:57;;;;;;;;;;;;;;;;;;5056973;28;19970;-85
2021/06/17 05:19:23;;;;;;;;;;;;;;;;;;5063844;28;19908;-78
2021/06/17 05:21:50;;;;;;;;;;;;;;;;;;5096050;28;19915;-78
2021/06/17 05:24:16;;;;;;;;;;;;;;;;;;5096241;28;19909;-79
2021/06/17 05:26:41;;;;;;;;;;;;;;;;;;5096495;28;19916;-78
2021/06/17 05:29:07;;;;;;;;;;;;;;;;;;5094047;28;19916;-78
2021/06/17 05:31:33;;;;;;;;;;;;;;;;;;5091371;28;19919;-77
2021/06/17 05:33:59;;;;;;;;;;;;;;;;;;5093540;28;20011;-78
2021/06/17 05:36:25;;;;;;;;;;;;;;;;;;5094534;28;20007;-76
2021/06/17 05:38:52;;;;;;;;;;;;;;;;;;5094475;28;19908;-77
2021/06/17 05:41:18;;;;;;;;;;;;;;;;;;5095515;28;19919;-77
2021/06/17 05:43:44;;;;;;;;;;;;;;;;;;5095343;28;19990;-79
2021/06/17 05:46:10;;;;;;;;;;;;;;;;;;5095649;28;20410;-78
2021/06/17 05:48:36;;;;;;;;;;;;;;;;;;5095243;28;19929;-78
2021/06/17 05:51:02;;;;;;;;;;;;;;;;;;5094890;28;19999;-78
2021/06/17 05:53:28;;;;;;;;;;;;;;;;;;5095213;28;20349;-78
2021/06/17 05:55:53;;;;;;;;;;;;;;;;;;5094973;28;19912;-78
2021/06/17 05:58:19;;;;;;;;;;;;;;;;;;5095157;28;20290;-78
2021/06/17 06:00:45;;;;;;;;;;;;;;;;;;5094861;28;19908;-78
2021/06/17 06:03:11;;;;;;;;;;;;;;;;;;5095102;28;20290;-78
2021/06/17 06:05:37;;;;;;;;;;;;;;;;;;5094278;28;19915;-79
2021/06/17 06:08:03;;;;;;;;;;;;;;;;;;5094654;28;19912;-79
2021/06/17 06:10:29;;;;;;;;;;;;;;;;;;5085594;28;19909;-78
2021/06/17 06:12:55;;;;;;;;;;;;;;;;;;5074020;28;19921;-78
2021/06/17 06:15:21;;;;;;;;;;;;;;;;;;5072844;28;19913;-79
2021/06/17 06:17:47;;;;;;;;;;;;;;;;;;5074832;28;19951;-79
2021/06/17 06:20:13;;;;;;;;;;;;;;;;;;5072404;28;19952;-79
2021/06/17 06:22:40;;;;;;;;;;;;;;;;;;5073163;28;20369;-77
2021/06/17 06:25:05;;;;;;;;;;;;;;;;;;5074602;28;19913;-79
2021/06/17 06:27:31;;;;;;;;;;;;;;;;;;5076883;28;20336;-79
2021/06/17 06:30:02;;;;;;;;;;;;;;;;;;5075257;28;20287;-79
2021/06/17 06:32:28;;;;;;;;;;;;;;;;;;5076241;28;19919;-78
2021/06/17 06:34:54;;;;;;;;;;;;;;;;;;5076084;28;19916;-78
2021/06/17 06:37:20;;;;;;;;;;;;;;;;;;5075812;28;20293;-78
2021/06/17 06:39:47;;;;;;;;;;;;;;;;;;5070801;28;19912;-77
2021/06/17 06:42:13;;;;;;;;;;;;;;;;;;5075700;28;19913;-78
2021/06/17 06:44:39;;;;;;;;;;;;;;;;;;5076162;28;20268;-78
2021/06/17 06:47:05;;;;;;;;;;;;;;;;;;5075669;28;19916;-78
2021/06/17 06:49:31;;;;;;;;;;;;;;;;;;5075051;28;20041;-77
2021/06/17 06:51:57;;;;;;;;;;;;;;;;;;5075397;28;19908;-78
2021/06/17 06:54:23;;;;;;;;;;;;;;;;;;5073771;28;19923;-77
2021/06/17 06:56:49;;;;;;;;;;;;;;;;;;5075183;28;19916;-79
2021/06/17 06:59:15;;;;;;;;;;;;;;;;;;5075444;28;19916;-79
2021/06/17 07:01:41;;;;;;;;;;;;;;;;;;5074720;28;19999;-78
2021/06/17 07:04:08;;;;;;;;;;;;;;;;;;5074809;28;19908;-78
2021/06/17 07:06:34;;;;;;;;;;;;;;;;;;5074518;28;19908;-77
2021/06/17 07:09:00;;;;;;;;;;;;;;;;;;5074011;28;19908;-78
2021/06/17 07:11:26;;;;;;;;;;;;;;;;;;5073659;28;19908;-79
2021/06/17 07:13:52;;;;;;;;;;;;;;;;;;5074074;28;19912;-78
2021/06/17 07:16:18;;;;;;;;;;;;;;;;;;5073798;28;19990;-78
2021/06/17 07:18:44;;;;;;;;;;;;;;;;;;5073268;28;19909;-78
2021/06/17 07:21:11;;;;;;;;;;;;;;;;;;5073839;28;19915;-79
2021/06/17 07:23:37;;;;;;;;;;;;;;;;;;5073225;28;19908;-78
2021/06/17 07:26:03;;;;;;;;;;;;;;;;;;5073316;28;19935;-78
2021/06/17 07:28:29;;;;;;;;;;;;;;;;;;5072018;28;20382;-77
2021/06/17 07:30:55;;;;;;;;;;;;;;;;;;5072744;28;19917;-78
2021/06/17 07:33:21;;;;;;;;;;;;;;;;;;5073499;28;20398;-78
2021/06/17 07:35:47;;;;;;;;;;;;;;;;;;5073025;28;19908;-78
2021/06/17 07:38:13;;;;;;;;;;;;;;;;;;5072915;28;19978;-79
2021/06/17 07:40:42;;;;;;;;;;;;;;;;;;5071924;28;20309;-77
2021/06/17 07:43:08;;;;;;;;;;;;;;;;;;5073566;28;19999;-77
2021/06/17 07:45:34;;;;;;;;;;;;;;;;;;5072199;28;19955;-77
2021/06/17 07:48:00;;;;;;;;;;;;;;;;;;5073266;28;19957;-78
2021/06/17 07:50:26;;;;;;;;;;;;;;;;;;5073536;28;19916;-78
2021/06/17 07:52:51;;;;;;;;;;;;;;;;;;5071718;28;19983;-77
2021/06/17 07:55:18;;;;;;;;;;;;;;;;;;5073389;28;20046;-77
2021/06/17 07:57:44;;;;;;;;;;;;;;;;;;5067764;28;19948;-78
2021/06/17 08:00:10;;;;;;;;;;;;;;;;;;5073553;28;20285;-78
2021/06/17 08:02:36;;;;;;;;;;;;;;;;;;5073186;28;19951;-78
2021/06/17 08:05:01;;;;;;;;;;;;;;;;;;5071781;28;19908;-78
2021/06/17 08:07:29;;;;;;;;;;;;;;;;;;5073051;28;19962;-78
2021/06/17 08:09:55;;;;;;;;;;;;;;;;;;5073020;28;19951;-77
2021/06/17 08:12:23;;;;;;;;;;;;;;;;;;5073324;28;19912;-78
2021/06/17 08:14:49;;;;;;;;;;;;;;;;;;5073009;28;19963;-78
2021/06/17 08:17:15;;;;;;;;;;;;;;;;;;5073053;28;19909;-77
2021/06/17 08:19:41;;;;;;;;;;;;;;;;;;5073116;28;19960;-77
2021/06/17 08:22:07;;;;;;;;;;;;;;;;;;5072643;28;19913;-78
2021/06/17 08:24:33;;;;;;;;;;;;;;;;;;5072851;28;19988;-78
2021/06/17 08:26:59;;;;;;;;;;;;;;;;;;5071704;28;19912;-77
2021/06/17 08:29:25;;;;;;;;;;;;;;;;;;5072597;28;19908;-78
2021/06/17 08:31:51;;;;;;;;;;;;;;;;;;5071517;28;20400;-77
2021/06/17 08:34:17;;;;;;;;;;;;;;;;;;5073005;28;20363;-79
2021/06/17 08:36:43;;;;;;;;;;;;;;;;;;5072618;28;19908;-78
2021/06/17 08:39:09;;;;;;;;;;;;;;;;;;5073035;28;19916;-77
2021/06/17 08:41:35;;;;;;;;;;;;;;;;;;5072688;28;19909;-78
2021/06/17 08:44:01;;;;;;;;;;;;;;;;;;5076397;28;19962;-78
2021/06/17 08:46:27;;;;;;;;;;;;;;;;;;5076351;28;19914;-76
2021/06/17 08:48:53;;;;;;;;;;;;;;;;;;5076287;28;19991;-75
2021/06/17 08:51:19;;;;;;;;;;;;;;;;;;5075773;28;20278;-78
2021/06/17 08:53:44;;;;;;;;;;;;;;;;;;5076417;28;20384;-78
2021/06/17 08:56:11;;;;;;;;;;;;;;;;;;5076292;28;19915;-78
2021/06/17 08:58:36;;;;;;;;;;;;;;;;;;5074772;28;19916;-76
2021/06/17 09:01:02;;;;;;;;;;;;;;;;;;5075615;28;19909;-76
2021/06/17 09:03:28;;;;;;;;;;;;;;;;;;5074362;28;19916;-76
2021/06/17 09:05:54;;;;;;;;;;;;;;;;;;5075487;28;19982;-76
2021/06/17 09:08:20;;;;;;;;;;;;;;;;;;5069631;28;20477;-76
2021/06/17 09:10:46;;;;;;;;;;;;;;;;;;5074123;28;19909;-76
2021/06/17 09:13:12;;;;;;;;;;;;;;;;;;5075247;28;20399;-76
2021/06/17 09:15:38;;;;;;;;;;;;;;;;;;5075388;28;19915;-77
2021/06/17 09:18:04;;;;;;;;;;;;;;;;;;5075105;28;19908;-76
2021/06/17 09:20:30;;;;;;;;;;;;;;;;;;5075316;28;20417;-76
2021/06/17 09:22:56;;;;;;;;;;;;;;;;;;5075261;28;20421;-77
2021/06/17 09:25:22;;;;;;;;;;;;;;;;;;5074946;28;20326;-77
2021/06/17 09:27:50;;;;;;;;;;;;;;;;;;5075260;28;19909;-77
2021/06/17 09:30:16;;;;;;;;;;;;;;;;;;5073877;28;19952;-77
2021/06/17 09:32:42;;;;;;;;;;;;;;;;;;5075012;28;19905;-77
2021/06/17 09:35:08;;;;;;;;;;;;;;;;;;5075332;28;20375;-77
2021/06/17 09:37:34;;;;;;;;;;;;;;;;;;5075537;28;19958;-77
2021/06/17 09:40:00;;;;;;;;;;;;;;;;;;5075007;28;20024;-77
2021/06/17 09:42:26;;;;;;;;;;;;;;;;;;5075079;28;19909;-77
2021/06/17 09:44:52;;;;;;;;;;;;;;;;;;5073684;28;19915;-77
2021/06/17 09:47:18;;;;;;;;;;;;;;;;;;5075165;28;19909;-77
2021/06/17 09:49:44;;;;;;;;;;;;;;;;;;5074980;28;19916;-77
2021/06/17 09:52:10;;;;;;;;;;;;;;;;;;5075141;28;19915;-77
2021/06/17 09:54:39;;;;;;;;;;;;;;;;;;5074140;28;20373;-77
2021/06/17 09:57:05;;;;;;;;;;;;;;;;;;5075556;28;20381;-78
2021/06/17 09:59:31;;;;;;;;;;;;;;;;;;5075297;28;19909;-76
2021/06/17 10:01:57;;;;;;;;;;;;;;;;;;5075048;28;19908;-77
2021/06/17 10:04:23;;;;;;;;;;;;;;;;;;5075078;28;19915;-77
2021/06/17 10:06:48;;;;;;;;;;;;;;;;;;5074993;28;19962;-77
2021/06/17 10:09:17;;;;;;;;;;;;;;;;;;5074605;28;20432;-76
2021/06/17 10:11:43;;;;;;;;;;;;;;;;;;5073249;28;19908;-77
2021/06/17 10:14:09;;;;;;;;;;;;;;;;;;5074754;28;19962;-77
2021/06/17 10:16:35;;;;;;;;;;;;;;;;;;5074260;28;20248;-77
2021/06/17 10:19:01;;;;;;;;;;;;;;;;;;5074589;28;20363;-77
2021/06/17 10:21:26;;;;;;;;;;;;;;;;;;5074361;28;19916;-78
2021/06/17 10:23:52;;;;;;;;;;;;;;;;;;5073640;28;20004;-78
2021/06/17 10:26:20;;;;;;;;;;;;;;;;;;5075024;28;20010;-78
2021/06/17 10:28:46;;;;;;;;;;;;;;;;;;5074205;28;19931;-78
2021/06/17 10:31:13;;;;;;;;;;;;;;;;;;5073900;28;19917;-77
2021/06/17 10:33:38;;;;;;;;;;;;;;;;;;5074118;28;20323;-77
2021/06/17 10:36:04;;;;;;;;;;;;;;;;;;5074039;28;19951;-76
2021/06/17 10:38:30;;;;;;;;;;;;;;;;;;5073647;28;20357;-78
2021/06/17 10:40:56;;;;;;;;;;;;;;;;;;5073779;28;19909;-77
2021/06/17 10:43:24;;;;;;;;;;;;;;;;;;5073907;28;19908;-77
2021/06/17 10:45:51;;;;;;;;;;;;;;;;;;5074543;28;19915;-78
2021/06/17 10:48:26;;;;;;;;;;;;;;;;;;5074562;28;19908;-78
2021/06/17 10:50:52;;;;;;;;;;;;;;;;;;5074824;28;19908;-78
2021/06/17 10:53:18;;;;;;;;;;;;;;;;;;5072614;28;20374;-78
2021/06/17 10:55:44;;;;;;;;;;;;;;;;;;5074062;28;19920;-78
2021/06/17 10:58:10;;;;;;;;;;;;;;;;;;5072657;28;19908;-78
2021/06/17 11:00:36;;;;;;;;;;;;;;;;;;5073350;28;20336;-78
2021/06/17 11:03:02;;;;;;;;;;;;;;;;;;5073697;28;19909;-78
2021/06/17 11:05:28;;;;;;;;;;;;;;;;;;5073836;28;20349;-77
2021/06/17 11:07:53;;;;;;;;;;;;;;;;;;5073625;28;20007;-77
2021/06/17 11:10:19;;;;;;;;;;;;;;;;;;5073943;28;19931;-78
2021/06/17 11:12:45;;;;;;;;;;;;;;;;;;5066613;28;19908;-76
2021/06/17 11:15:11;;;;;;;;;;;;;;;;;;5073560;28;19908;-77
2021/06/17 11:17:37;;;;;;;;;;;;;;;;;;5073401;28;20005;-77
2021/06/17 11:20:05;;;;;;;;;;;;;;;;;;5073633;28;19909;-76
2021/06/17 11:22:31;;;;;;;;;;;;;;;;;;5071795;28;19909;-76
2021/06/17 11:24:57;;;;;;;;;;;;;;;;;;5073308;28;19909;-76
2021/06/17 11:27:23;;;;;;;;;;;;;;;;;;5073219;28;20440;-77
2021/06/17 11:29:49;;;;;;;;;;;;;;;;;;5073665;28;19915;-78
2021/06/17 11:32:15;;;;;;;;;;;;;;;;;;5073421;28;19916;-77
2021/06/17 11:34:45;;;;;;;;;;;;;;;;;;5071074;28;21300;-76
2021/06/17 11:37:11;;;;;;;;;;;;;;;;;;5070254;28;20244;-76
2021/06/17 11:39:37;;;;;;;;;;;;;;;;;;5071919;28;19915;-77
2021/06/17 11:42:03;;;;;;;;;;;;;;;;;;5068076;28;19916;-77
2021/06/17 11:44:29;;;;;;;;;;;;;;;;;;5072982;28;19909;-76
2021/06/17 11:46:55;;;;;;;;;;;;;;;;;;5072863;28;20007;-77
2021/06/17 11:49:21;;;;;;;;;;;;;;;;;;5072668;28;19931;-76
2021/06/17 11:51:47;;;;;;;;;;;;;;;;;;5072976;28;19915;-76
2021/06/17 11:54:20;;;;;;;;;;;;;;;;;;5072937;28;19913;-77
2021/06/17 11:56:46;;;;;;;;;;;;;;;;;;5073040;28;19931;-77
2021/06/17 11:59:12;;;;;;;;;;;;;;;;;;5072572;28;19912;-76
2021/06/17 12:01:38;;;;;;;;;;;;;;;;;;5072941;28;19908;-77
2021/06/17 12:04:11;;;;;;;;;;;;;;;;;;5072776;28;20394;-76
2021/06/17 12:06:37;;;;;;;;;;;;;;;;;;5072957;28;20382;-76
2021/06/17 12:09:03;;;;;;;;;;;;;;;;;;5072723;28;19908;-76
2021/06/17 12:11:28;;;;;;;;;;;;;;;;;;5071187;28;20356;-76
2021/06/17 12:13:55;;;;;;;;;;;;;;;;;;5072483;28;19974;-76
2021/06/17 12:16:21;;;;;;;;;;;;;;;;;;5072362;28;19915;-76
2021/06/17 12:18:47;;;;;;;;;;;;;;;;;;5075717;28;20003;-76
2021/06/17 12:21:13;;;;;;;;;;;;;;;;;;5076618;28;19912;-75
2021/06/17 12:23:38;;;;;;;;;;;;;;;;;;5076576;28;19909;-77
2021/06/17 12:26:06;;;;;;;;;;;;;;;;;;5076465;28;19912;-76
2021/06/17 12:28:31;;;;;;;;;;;;;;;;;;5073212;28;19916;-75
2021/06/17 12:30:57;;;;;;;;;;;;;;;;;;5075129;28;19917;-76
2021/06/17 12:33:23;;;;;;;;;;;;;;;;;;5074623;28;20141;-77
2021/06/17 12:35:49;;;;;;;;;;;;;;;;;;5076203;28;19998;-77
2021/06/17 12:38:15;;;;;;;;;;;;;;;;;;5076914;28;19992;-77
2021/06/17 12:40:41;;;;;;;;;;;;;;;;;;5075271;28;19909;-76
2021/06/17 12:43:07;;;;;;;;;;;;;;;;;;5075385;28;20417;-76
2021/06/17 12:45:36;;;;;;;;;;;;;;;;;;5075718;28;19909;-78
2021/06/17 12:48:08;;;;;;;;;;;;;;;;;;5076218;28;19995;-77
2021/06/17 12:53:18;;;;;;;;;;;;;;;;;;5076439;28;20301;-77
2021/06/17 12:55:47;;;;;;;;;;;;;;;;;;5076508;28;19913;-77
2021/06/17 12:58:15;;;;;;;;;;;;;;;;;;5076038;28;19909;-81
2021/06/17 13:00:41;;;;;;;;;;;;;;;;;;5076281;28;19913;-78
2021/06/17 13:03:08;;;;;;;;;;;;;;;;;;5075617;28;19923;-79
2021/06/17 13:05:34;;;;;;;;;;;;;;;;;;5075099;28;20013;-79
2021/06/17 13:08:00;;;;;;;;;;;;;;;;;;5077223;28;20136;-79
2021/06/17 13:10:26;;;;;;;;;;;;;;;;;;5078965;28;19915;-79
2021/06/17 13:12:52;;;;;;;;;;;;;;;;;;5078207;28;20363;-79
2021/06/17 13:15:18;;;;;;;;;;;;;;;;;;5075383;28;20011;-77
2021/06/17 13:17:44;;;;;;;;;;;;;;;;;;5074563;28;19940;-78
2021/06/17 13:20:10;;;;;;;;;;;;;;;;;;5076210;28;19908;-78
2021/06/17 13:22:36;;;;;;;;;;;;;;;;;;5076278;28;19908;-78
2021/06/17 13:25:01;;;;;;;;;;;;;;;;;;5076806;28;19915;-77
2021/06/17 13:27:27;;;;;;;;;;;;;;;;;;5075238;28;20339;-78
2021/06/17 13:29:53;;;;;;;;;;;;;;;;;;5074356;28;19915;-78
2021/06/17 13:32:19;;;;;;;;;;;;;;;;;;5076477;28;20010;-77
2021/06/17 13:34:45;;;;;;;;;;;;;;;;;;5076390;28;19920;-78
2021/06/17 13:37:11;;;;;;;;;;;;;;;;;;5076472;28;19908;-78
2021/06/17 13:39:37;;;;;;;;;;;;;;;;;;5075715;28;19955;-77
2021/06/17 13:42:03;;;;;;;;;;;;;;;;;;5075079;28;20462;-77
2021/06/17 13:44:29;;;;;;;;;;;;;;;;;;5073973;28;19916;-77
2021/06/17 13:46:55;;;;;;;;;;;;;;;;;;5074057;28;19909;-77
2021/06/17 13:49:21;;;;;;;;;;;;;;;;;;5075829;28;19909;-78
2021/06/17 13:51:47;;;;;;;;;;;;;;;;;;5075685;28;19909;-78
2021/06/17 13:54:13;;;;;;;;;;;;;;;;;;5075642;28;20012;-78
2021/06/17 13:56:39;;;;;;;;;;;;;;;;;;5074390;28;19913;-79
2021/06/17 13:59:05;;;;;;;;;;;;;;;;;;5074106;28;19975;-78
2021/06/17 14:01:31;;;;;;;;;;;;;;;;;;5075846;28;19915;-77
2021/06/17 14:03:57;;;;;;;;;;;;;;;;;;5073436;28;19908;-78
2021/06/17 14:06:23;;;;;;;;;;;;;;;;;;5075313;28;20445;-77
2021/06/17 14:08:49;;;;;;;;;;;;;;;;;;5075280;28;19908;-77
2021/06/17 14:11:14;;;;;;;;;;;;;;;;;;5074469;28;19915;-79
2021/06/17 14:13:40;;;;;;;;;;;;;;;;;;5076649;28;19913;-77
2021/06/17 14:16:06;;;;;;;;;;;;;;;;;;5075186;28;19943;-78
2021/06/17 14:18:32;;;;;;;;;;;;;;;;;;5075641;28;19999;-77
2021/06/17 14:20:58;;;;;;;;;;;;;;;;;;5073967;28;19915;-78
2021/06/17 14:23:24;;;;;;;;;;;;;;;;;;5075746;28;20453;-78
2021/06/17 14:25:52;;;;;;;;;;;;;;;;;;5076340;28;19909;-79
2021/06/17 14:28:18;;;;;;;;;;;;;;;;;;5073980;28;19909;-77
2021/06/17 14:30:45;;;;;;;;;;;;;;;;;;5073813;28;19943;-79
2021/06/17 14:33:11;;;;;;;;;;;;;;;;;;5075049;28;19990;-77
2021/06/17 14:35:38;;;;;;;;;;;;;;;;;;5074047;28;19909;-78
2021/06/17 14:38:07;;;;;;;;;;;;;;;;;;5074626;28;19958;-79
2021/06/17 14:40:33;;;;;;;;;;;;;;;;;;5076487;28;19958;-78
2021/06/17 14:42:59;;;;;;;;;;;;;;;;;;5074285;28;20332;-78
2021/06/17 14:45:25;;;;;;;;;;;;;;;;;;5076355;28;19991;-79
2021/06/17 14:47:51;;;;;;;;;;;;;;;;;;5073461;28;20406;-78
2021/06/17 14:50:18;;;;;;;;;;;;;;;;;;5075357;28;19908;-81
2021/06/17 14:52:44;;;;;;;;;;;;;;;;;;5061872;28;19908;-81
2021/06/17 14:55:10;;;;;;;;;;;;;;;;;;5067485;28;19909;-82
2021/06/17 14:57:36;;;;;;;;;;;;;;;;;;5056025;28;20286;-79
2021/06/17 15:00:02;;;;;;;;;;;;;;;;;;5055811;28;20031;-79
2021/06/17 15:02:28;;;;;;;;;;;;;;;;;;5055741;28;19944;-79
2021/06/17 15:04:54;;;;;;;;;;;;;;;;;;5054315;28;19962;-78
2021/06/17 15:07:20;;;;;;;;;;;;;;;;;;5053702;28;19952;-77
2021/06/17 15:09:46;;;;;;;;;;;;;;;;;;5055562;28;19915;-80
2021/06/17 15:12:12;;;;;;;;;;;;;;;;;;5054416;28;19909;-79
2021/06/17 15:14:38;;;;;;;;;;;;;;;;;;5053883;28;19939;-79
2021/06/17 15:17:05;;;;;;;;;;;;;;;;;;5055515;28;19913;-77
2021/06/17 15:19:31;;;;;;;;;;;;;;;;;;5055105;28;20004;-77
2021/06/17 15:21:57;;;;;;;;;;;;;;;;;;5055155;28;20006;-79
2021/06/17 15:24:23;;;;;;;;;;;;;;;;;;5054969;28;19916;-78
2021/06/17 15:26:49;;;;;;;;;;;;;;;;;;5047447;28;19909;-80
2021/06/17 15:29:15;;;;;;;;;;;;;;;;;;5053606;28;19908;-78
2021/06/17 15:31:41;;;;;;;;;;;;;;;;;;5054736;28;19999;-78
2021/06/17 15:34:07;;;;;;;;;;;;;;;;;;5054653;28;20007;-78
2021/06/17 15:36:33;;;;;;;;;;;;;;;;;;5054747;28;19935;-78
2021/06/17 15:38:59;;;;;;;;;;;;;;;;;;5054735;28;19913;-78
2021/06/17 15:41:25;;;;;;;;;;;;;;;;;;5055888;28;19962;-78
2021/06/17 15:43:51;;;;;;;;;;;;;;;;;;5054866;28;20380;-79
2021/06/17 15:46:17;;;;;;;;;;;;;;;;;;5054071;28;19969;-78
2021/06/17 15:48:42;;;;;;;;;;;;;;;;;;5053227;28;19991;-78
2021/06/17 15:51:08;;;;;;;;;;;;;;;;;;5054413;28;19909;-77
2021/06/17 15:53:34;;;;;;;;;;;;;;;;;;5052579;28;19916;-77
2021/06/17 15:56:01;;;;;;;;;;;;;;;;;;5053136;28;19958;-77
2021/06/17 15:58:27;;;;;;;;;;;;;;;;;;5054971;28;19908;-79
2021/06/17 16:00:53;;;;;;;;;;;;;;;;;;5054475;28;19931;-77
2021/06/17 16:03:19;;;;;;;;;;;;;;;;;;5054756;28;19909;-79
2021/06/17 16:05:45;;;;;;;;;;;;;;;;;;5054804;28;20374;-77
2021/06/17 16:08:12;;;;;;;;;;;;;;;;;;5053742;28;19913;-76
2021/06/17 16:10:38;;;;;;;;;;;;;;;;;;5053538;28;20023;-81
2021/06/17 16:13:04;;;;;;;;;;;;;;;;;;5050810;28;20007;-76
2021/06/17 16:15:30;;;;;;;;;;;;;;;;;;5048807;28;19912;-76
2021/06/17 16:17:56;;;;;;;;;;;;;;;;;;5050034;28;20301;-77
2021/06/17 16:20:22;;;;;;;;;;;;;;;;;;5050681;28;19909;-77
2021/06/17 16:22:48;;;;;;;;;;;;;;;;;;5050195;28;19909;-76
2021/06/17 16:25:14;;;;;;;;;;;;;;;;;;5051978;28;19913;-76
2021/06/17 16:27:40;;;;;;;;;;;;;;;;;;5050506;28;20268;-76
2021/06/17 16:30:06;;;;;;;;;;;;;;;;;;5052136;28;19967;-75
2021/06/17 16:32:32;;;;;;;;;;;;;;;;;;5051050;28;19919;-77
2021/06/17 16:34:58;;;;;;;;;;;;;;;;;;5050789;28;19913;-78
2021/06/17 16:37:24;;;;;;;;;;;;;;;;;;5052429;28;19909;-76
2021/06/17 16:39:50;;;;;;;;;;;;;;;;;;5049611;28;20474;-77
2021/06/17 16:42:15;;;;;;;;;;;;;;;;;;5048817;28;19971;-76
2021/06/17 16:44:42;;;;;;;;;;;;;;;;;;5051941;28;20371;-77